sensor_id;sensor_type;location;lat;lon;timestamp;P1;durP1;ratioP1;P2;durP2;ratioP2
41167;SDS011;26906;45.658;9.272;2023-07-13T05:34:39;9.80;;;3.72;;
41167;SDS011;26906;45.658;9.272;2023-07-13T05:37:05;8.70;;;3.75;;
41167;SDS011;26906;45.658;9.272;2023-07-13T05:39:31;8.93;;;3.85;;
41167;SDS011;26906;45.658;9.272;2023-07-13T05:41:56;7.75;;;3.70;;
41167;SDS011;26906;45.658;9.272;2023-07-13T05:44:22;9.18;;;3.70;;
41167;SDS011;26906;45.658;9.272;2023-07-13T05:46:48;9.35;;;3.90;;
41167;SDS011;26906;45.658;9.272;2023-07-13T05:49:13;11.75;;;4.05;;
41167;SDS011;26906;45.658;9.272;2023-07-13T05:51:39;7.60;;;4.18;;
41167;SDS011;26906;45.658;9.272;2023-07-13T05:54:05;6.90;;;3.60;;
41167;SDS011;26906;45.658;9.272;2023-07-13T05:56:30;9.20;;;3.53;;
41167;SDS011;26906;45.658;9.272;2023-07-13T05:58:56;11.07;;;3.70;;
41167;SDS011;26906;45.658;9.272;2023-07-13T06:01:22;9.73;;;3.90;;
41167;SDS011;26906;45.658;9.272;2023-07-13T06:03:48;7.30;;;3.60;;
41167;SDS011;26906;45.658;9.272;2023-07-13T06:06:15;9.55;;;3.85;;
41167;SDS011;26906;45.658;9.272;2023-07-13T06:08:41;10.80;;;3.85;;
41167;SDS011;26906;45.658;9.272;2023-07-13T06:13:38;9.73;;;3.72;;
41167;SDS011;26906;45.658;9.272;2023-07-13T06:16:04;7.07;;;3.50;;
41167;SDS011;26906;45.658;9.272;2023-07-13T06:18:31;9.35;;;3.55;;
41167;SDS011;26906;45.658;9.272;2023-07-13T06:20:58;8.68;;;3.92;;
41167;SDS011;26906;45.658;9.272;2023-07-13T06:23:24;11.30;;;4.00;;
41167;SDS011;26906;45.658;9.272;2023-07-13T06:25:50;8.65;;;3.90;;
41167;SDS011;26906;45.658;9.272;2023-07-13T06:28:16;8.07;;;3.33;;
41167;SDS011;26906;45.658;9.272;2023-07-13T06:30:41;7.93;;;2.97;;
41167;SDS011;26906;45.658;9.272;2023-07-13T06:33:07;12.25;;;3.80;;
41167;SDS011;26906;45.658;9.272;2023-07-13T06:35:33;8.18;;;3.50;;
41167;SDS011;26906;45.658;9.272;2023-07-13T06:37:58;7.85;;;2.95;;
41167;SDS011;26906;45.658;9.272;2023-07-13T06:40:24;9.65;;;3.30;;
41167;SDS011;26906;45.658;9.272;2023-07-13T06:42:50;6.03;;;2.67;;
41167;SDS011;26906;45.658;9.272;2023-07-13T06:45:16;10.05;;;3.03;;
41167;SDS011;26906;45.658;9.272;2023-07-13T06:47:44;7.32;;;2.67;;
41167;SDS011;26906;45.658;9.272;2023-07-13T06:50:10;5.75;;;2.25;;
41167;SDS011;26906;45.658;9.272;2023-07-13T06:52:36;7.10;;;2.63;;
41167;SDS011;26906;45.658;9.272;2023-07-13T06:55:02;3.95;;;2.50;;
41167;SDS011;26906;45.658;9.272;2023-07-13T06:57:27;7.85;;;3.13;;
41167;SDS011;26906;45.658;9.272;2023-07-13T06:59:53;5.88;;;2.05;;
41167;SDS011;26906;45.658;9.272;2023-07-13T07:02:19;7.22;;;2.05;;
41167;SDS011;26906;45.658;9.272;2023-07-13T07:04:44;5.75;;;2.10;;
41167;SDS011;26906;45.658;9.272;2023-07-13T07:07:10;4.75;;;1.80;;
41167;SDS011;26906;45.658;9.272;2023-07-13T07:09:36;8.15;;;2.20;;
41167;SDS011;26906;45.658;9.272;2023-07-13T07:12:02;4.80;;;1.88;;
41167;SDS011;26906;45.658;9.272;2023-07-13T07:14:28;4.15;;;1.90;;
41167;SDS011;26906;45.658;9.272;2023-07-13T07:16:54;5.38;;;1.83;;
41167;SDS011;26906;45.658;9.272;2023-07-13T07:19:20;4.38;;;1.80;;
41167;SDS011;26906;45.658;9.272;2023-07-13T07:21:45;5.40;;;2.35;;
41167;SDS011;26906;45.658;9.272;2023-07-13T07:24:11;5.50;;;1.70;;
41167;SDS011;26906;45.658;9.272;2023-07-13T07:26:37;4.00;;;1.90;;
41167;SDS011;26906;45.658;9.272;2023-07-13T07:29:02;5.47;;;1.73;;
41167;SDS011;26906;45.658;9.272;2023-07-13T07:31:28;4.45;;;2.00;;
41167;SDS011;26906;45.658;9.272;2023-07-13T07:33:54;6.15;;;2.00;;
41167;SDS011;26906;45.658;9.272;2023-07-13T07:36:19;4.38;;;2.17;;
41167;SDS011;26906;45.658;9.272;2023-07-13T07:38:45;4.97;;;2.58;;
41167;SDS011;26906;45.658;9.272;2023-07-13T07:41:11;4.38;;;2.33;;
41167;SDS011;26906;45.658;9.272;2023-07-13T07:43:38;7.45;;;2.22;;
41167;SDS011;26906;45.658;9.272;2023-07-13T07:46:04;6.68;;;2.75;;
41167;SDS011;26906;45.658;9.272;2023-07-13T07:48:30;5.78;;;2.47;;
41167;SDS011;26906;45.658;9.272;2023-07-13T07:50:56;5.93;;;2.83;;
41167;SDS011;26906;45.658;9.272;2023-07-13T07:53:22;7.75;;;3.03;;
41167;SDS011;26906;45.658;9.272;2023-07-13T07:55:47;10.80;;;3.72;;
41167;SDS011;26906;45.658;9.272;2023-07-13T07:58:13;5.35;;;2.78;;
41167;SDS011;26906;45.658;9.272;2023-07-13T08:00:39;6.22;;;2.70;;
41167;SDS011;26906;45.658;9.272;2023-07-13T08:03:10;8.50;;;2.92;;
41167;SDS011;26906;45.658;9.272;2023-07-13T08:05:37;5.60;;;3.20;;
41167;SDS011;26906;45.658;9.272;2023-07-13T08:08:03;3.33;;;2.85;;
41167;SDS011;26906;45.658;9.272;2023-07-13T08:10:29;6.47;;;3.00;;
41167;SDS011;26906;45.658;9.272;2023-07-13T08:12:54;4.45;;;2.75;;
41167;SDS011;26906;45.658;9.272;2023-07-13T08:15:20;4.80;;;2.67;;
41167;SDS011;26906;45.658;9.272;2023-07-13T08:17:47;5.70;;;2.72;;
41167;SDS011;26906;45.658;9.272;2023-07-13T08:20:14;4.38;;;2.00;;
41167;SDS011;26906;45.658;9.272;2023-07-13T08:22:40;4.30;;;2.20;;
41167;SDS011;26906;45.658;9.272;2023-07-13T08:25:06;3.72;;;1.70;;
41167;SDS011;26906;45.658;9.272;2023-07-13T08:27:32;3.97;;;1.60;;
41167;SDS011;26906;45.658;9.272;2023-07-13T08:29:58;4.28;;;1.65;;
41167;SDS011;26906;45.658;9.272;2023-07-13T08:32:24;7.97;;;1.48;;
41167;SDS011;26906;45.658;9.272;2023-07-13T08:34:50;2.53;;;1.40;;
41167;SDS011;26906;45.658;9.272;2023-07-13T08:37:16;4.88;;;1.42;;
41167;SDS011;26906;45.658;9.272;2023-07-13T08:39:42;3.15;;;1.42;;
41167;SDS011;26906;45.658;9.272;2023-07-13T08:47:22;2.17;;;1.17;;
41167;SDS011;26906;45.658;9.272;2023-07-13T08:49:49;2.90;;;1.35;;
41167;SDS011;26906;45.658;9.272;2023-07-13T08:54:50;3.97;;;1.40;;
41167;SDS011;26906;45.658;9.272;2023-07-13T08:57:30;6.75;;;2.15;;
41167;SDS011;26906;45.658;9.272;2023-07-13T08:59:58;4.00;;;1.60;;
41167;SDS011;26906;45.658;9.272;2023-07-13T09:05:14;4.15;;;1.30;;
41167;SDS011;26906;45.658;9.272;2023-07-13T09:16:44;3.58;;;1.48;;
41167;SDS011;26906;45.658;9.272;2023-07-13T09:19:13;2.58;;;1.23;;
41167;SDS011;26906;45.658;9.272;2023-07-13T09:21:45;4.18;;;1.23;;
41167;SDS011;26906;45.658;9.272;2023-07-13T09:24:35;4.32;;;1.52;;
41167;SDS011;26906;45.658;9.272;2023-07-13T09:30:17;4.03;;;1.50;;
41167;SDS011;26906;45.658;9.272;2023-07-13T09:32:51;3.40;;;1.73;;
41167;SDS011;26906;45.658;9.272;2023-07-13T09:35:24;5.70;;;1.77;;
41167;SDS011;26906;45.658;9.272;2023-07-13T09:37:56;4.03;;;2.10;;
41167;SDS011;26906;45.658;9.272;2023-07-13T09:40:24;5.82;;;2.15;;
41167;SDS011;26906;45.658;9.272;2023-07-13T09:43:01;8.60;;;2.20;;
41167;SDS011;26906;45.658;9.272;2023-07-13T09:45:29;4.50;;;2.33;;
41167;SDS011;26906;45.658;9.272;2023-07-13T09:48:05;8.93;;;2.75;;
41167;SDS011;26906;45.658;9.272;2023-07-13T09:50:35;5.80;;;2.30;;
41167;SDS011;26906;45.658;9.272;2023-07-13T09:53:02;6.28;;;2.28;;
41167;SDS011;26906;45.658;9.272;2023-07-13T09:55:30;8.15;;;2.50;;
41167;SDS011;26906;45.658;9.272;2023-07-13T10:00:40;4.80;;;2.28;;
41167;SDS011;26906;45.658;9.272;2023-07-13T10:03:16;4.53;;;2.15;;
41167;SDS011;26906;45.658;9.272;2023-07-13T10:05:49;4.25;;;2.30;;
41167;SDS011;26906;45.658;9.272;2023-07-13T10:08:29;4.30;;;2.30;;
41167;SDS011;26906;45.658;9.272;2023-07-13T10:11:01;7.00;;;2.35;;
41167;SDS011;26906;45.658;9.272;2023-07-13T10:13:35;3.97;;;2.00;;
41167;SDS011;26906;45.658;9.272;2023-07-13T10:16:06;5.72;;;2.42;;
41167;SDS011;26906;45.658;9.272;2023-07-13T10:21:21;7.40;;;2.80;;
41167;SDS011;26906;45.658;9.272;2023-07-13T10:23:52;8.95;;;3.13;;
41167;SDS011;26906;45.658;9.272;2023-07-13T10:26:29;8.48;;;2.50;;
41167;SDS011;26906;45.658;9.272;2023-07-13T10:28:57;5.85;;;2.40;;
41167;SDS011;26906;45.658;9.272;2023-07-13T10:31:26;4.78;;;2.25;;
41167;SDS011;26906;45.658;9.272;2023-07-13T10:33:52;9.10;;;3.40;;
41167;SDS011;26906;45.658;9.272;2023-07-13T10:38:50;6.10;;;3.25;;
41167;SDS011;26906;45.658;9.272;2023-07-13T10:41:18;4.35;;;2.35;;
41167;SDS011;26906;45.658;9.272;2023-07-13T10:43:49;5.43;;;3.15;;
41167;SDS011;26906;45.658;9.272;2023-07-13T10:46:18;4.85;;;2.88;;
41167;SDS011;26906;45.658;9.272;2023-07-13T10:48:49;8.65;;;2.95;;
41167;SDS011;26906;45.658;9.272;2023-07-13T10:51:19;11.98;;;3.90;;
41167;SDS011;26906;45.658;9.272;2023-07-13T10:53:46;4.82;;;2.78;;
41167;SDS011;26906;45.658;9.272;2023-07-13T10:59:27;9.52;;;3.63;;
41167;SDS011;26906;45.658;9.272;2023-07-13T11:01:52;4.80;;;3.15;;
41167;SDS011;26906;45.658;9.272;2023-07-13T11:04:23;4.90;;;2.67;;
41167;SDS011;26906;45.658;9.272;2023-07-13T11:06:53;6.30;;;2.78;;
41167;SDS011;26906;45.658;9.272;2023-07-13T11:22:49;6.68;;;2.20;;
41167;SDS011;26906;45.658;9.272;2023-07-13T11:27:52;4.97;;;2.70;;
41167;SDS011;26906;45.658;9.272;2023-07-13T11:30:36;4.38;;;2.50;;
41167;SDS011;26906;45.658;9.272;2023-07-13T11:36:02;9.10;;;2.90;;
41167;SDS011;26906;45.658;9.272;2023-07-13T11:38:35;6.82;;;3.15;;
41167;SDS011;26906;45.658;9.272;2023-07-13T11:41:45;6.43;;;3.10;;
41167;SDS011;26906;45.658;9.272;2023-07-13T11:44:10;9.50;;;3.20;;
41167;SDS011;26906;45.658;9.272;2023-07-13T11:46:36;5.53;;;2.65;;
41167;SDS011;26906;45.658;9.272;2023-07-13T11:49:04;6.70;;;2.67;;
41167;SDS011;26906;45.658;9.272;2023-07-13T11:51:33;10.38;;;3.55;;
41167;SDS011;26906;45.658;9.272;2023-07-13T11:54:04;6.43;;;3.30;;
41167;SDS011;26906;45.658;9.272;2023-07-13T11:56:37;7.93;;;3.63;;
41167;SDS011;26906;45.658;9.272;2023-07-13T11:59:04;6.57;;;3.28;;
41167;SDS011;26906;45.658;9.272;2023-07-13T12:01:33;6.57;;;4.43;;
41167;SDS011;26906;45.658;9.272;2023-07-13T12:04:03;9.15;;;3.50;;
41167;SDS011;26906;45.658;9.272;2023-07-13T12:06:34;9.57;;;4.70;;
41167;SDS011;26906;45.658;9.272;2023-07-13T12:09:10;6.45;;;3.75;;
41167;SDS011;26906;45.658;9.272;2023-07-13T12:11:38;8.18;;;3.50;;
41167;SDS011;26906;45.658;9.272;2023-07-13T12:14:06;8.77;;;4.50;;
41167;SDS011;26906;45.658;9.272;2023-07-13T12:16:37;9.45;;;4.30;;
41167;SDS011;26906;45.658;9.272;2023-07-13T12:19:03;10.40;;;4.18;;
41167;SDS011;26906;45.658;9.272;2023-07-13T12:21:39;6.85;;;3.60;;
41167;SDS011;26906;45.658;9.272;2023-07-13T12:24:13;7.57;;;3.78;;
41167;SDS011;26906;45.658;9.272;2023-07-13T12:26:41;9.30;;;3.95;;
41167;SDS011;26906;45.658;9.272;2023-07-13T12:29:07;8.23;;;3.80;;
41167;SDS011;26906;45.658;9.272;2023-07-13T12:31:42;8.50;;;3.55;;
41167;SDS011;26906;45.658;9.272;2023-07-13T12:39:17;12.15;;;4.00;;
41167;SDS011;26906;45.658;9.272;2023-07-13T12:41:48;7.88;;;3.17;;
41167;SDS011;26906;45.658;9.272;2023-07-13T12:44:17;9.93;;;3.85;;
41167;SDS011;26906;45.658;9.272;2023-07-13T12:46:55;7.90;;;3.33;;
41167;SDS011;26906;45.658;9.272;2023-07-13T12:49:24;10.02;;;3.50;;
41167;SDS011;26906;45.658;9.272;2023-07-13T12:51:56;7.22;;;3.47;;
41167;SDS011;26906;45.658;9.272;2023-07-13T12:54:24;8.13;;;3.28;;
41167;SDS011;26906;45.658;9.272;2023-07-13T12:56:50;9.32;;;3.47;;
41167;SDS011;26906;45.658;9.272;2023-07-13T12:59:19;9.20;;;4.32;;
41167;SDS011;26906;45.658;9.272;2023-07-13T13:01:47;8.93;;;3.67;;
41167;SDS011;26906;45.658;9.272;2023-07-13T13:04:17;9.27;;;3.47;;
41167;SDS011;26906;45.658;9.272;2023-07-13T13:06:46;9.32;;;3.90;;
41167;SDS011;26906;45.658;9.272;2023-07-13T13:09:13;8.68;;;3.72;;
41167;SDS011;26906;45.658;9.272;2023-07-13T13:11:40;9.20;;;3.72;;
41167;SDS011;26906;45.658;9.272;2023-07-13T13:14:06;7.40;;;3.28;;
41167;SDS011;26906;45.658;9.272;2023-07-13T13:16:40;10.75;;;3.63;;
41167;SDS011;26906;45.658;9.272;2023-07-13T13:19:19;8.98;;;3.30;;
41167;SDS011;26906;45.658;9.272;2023-07-13T13:21:51;7.90;;;3.47;;
41167;SDS011;26906;45.658;9.272;2023-07-13T13:24:19;8.77;;;3.40;;
41167;SDS011;26906;45.658;9.272;2023-07-13T13:26:48;9.57;;;3.65;;
41167;SDS011;26906;45.658;9.272;2023-07-13T13:29:20;6.88;;;3.42;;
41167;SDS011;26906;45.658;9.272;2023-07-13T13:31:49;9.00;;;3.35;;
41167;SDS011;26906;45.658;9.272;2023-07-13T13:34:16;9.45;;;3.67;;
41167;SDS011;26906;45.658;9.272;2023-07-13T13:36:43;8.73;;;3.60;;
41167;SDS011;26906;45.658;9.272;2023-07-13T13:39:15;9.35;;;4.32;;
41167;SDS011;26906;45.658;9.272;2023-07-13T13:41:43;14.25;;;5.20;;
41167;SDS011;26906;45.658;9.272;2023-07-13T13:44:09;7.72;;;3.63;;
41167;SDS011;26906;45.658;9.272;2023-07-13T13:46:35;8.20;;;4.47;;
41167;SDS011;26906;45.658;9.272;2023-07-13T13:49:01;12.18;;;4.25;;
41167;SDS011;26906;45.658;9.272;2023-07-13T13:51:27;10.88;;;3.63;;
41167;SDS011;26906;45.658;9.272;2023-07-13T13:53:54;12.30;;;4.55;;
41167;SDS011;26906;45.658;9.272;2023-07-13T13:56:20;9.98;;;3.55;;
41167;SDS011;26906;45.658;9.272;2023-07-13T13:58:46;10.70;;;3.30;;
41167;SDS011;26906;45.658;9.272;2023-07-13T14:01:13;10.05;;;3.90;;
41167;SDS011;26906;45.658;9.272;2023-07-13T14:03:44;10.70;;;4.30;;
41167;SDS011;26906;45.658;9.272;2023-07-13T14:06:14;13.65;;;4.50;;
41167;SDS011;26906;45.658;9.272;2023-07-13T14:08:40;9.80;;;4.00;;
41167;SDS011;26906;45.658;9.272;2023-07-13T14:11:09;8.57;;;3.70;;
41167;SDS011;26906;45.658;9.272;2023-07-13T14:13:41;8.90;;;3.70;;
41167;SDS011;26906;45.658;9.272;2023-07-13T14:16:16;8.80;;;3.58;;
41167;SDS011;26906;45.658;9.272;2023-07-13T14:18:44;9.85;;;3.80;;
41167;SDS011;26906;45.658;9.272;2023-07-13T14:21:14;11.85;;;4.22;;
41167;SDS011;26906;45.658;9.272;2023-07-13T14:23:43;6.82;;;3.38;;
41167;SDS011;26906;45.658;9.272;2023-07-13T14:26:14;10.80;;;3.50;;
41167;SDS011;26906;45.658;9.272;2023-07-13T14:28:42;8.57;;;3.83;;
41167;SDS011;26906;45.658;9.272;2023-07-13T14:31:13;8.63;;;3.63;;
41167;SDS011;26906;45.658;9.272;2023-07-13T14:33:40;8.15;;;3.55;;
41167;SDS011;26906;45.658;9.272;2023-07-13T14:36:16;10.10;;;3.63;;
41167;SDS011;26906;45.658;9.272;2023-07-13T14:38:52;8.23;;;3.38;;
41167;SDS011;26906;45.658;9.272;2023-07-13T14:41:18;9.05;;;3.78;;
41167;SDS011;26906;45.658;9.272;2023-07-13T14:43:45;9.52;;;3.28;;
41167;SDS011;26906;45.658;9.272;2023-07-13T14:49:05;9.95;;;3.42;;
41167;SDS011;26906;45.658;9.272;2023-07-13T14:51:54;10.80;;;3.95;;
41167;SDS011;26906;45.658;9.272;2023-07-13T14:54:22;9.65;;;4.05;;
41167;SDS011;26906;45.658;9.272;2023-07-13T14:56:49;7.13;;;3.25;;
41167;SDS011;26906;45.658;9.272;2023-07-13T14:59:15;7.85;;;3.20;;
41167;SDS011;26906;45.658;9.272;2023-07-13T15:01:43;6.35;;;2.92;;
41167;SDS011;26906;45.658;9.272;2023-07-13T15:04:10;4.50;;;2.97;;
41167;SDS011;26906;45.658;9.272;2023-07-13T15:06:55;10.23;;;3.50;;
41167;SDS011;26906;45.658;9.272;2023-07-13T15:09:24;6.30;;;3.30;;
41167;SDS011;26906;45.658;9.272;2023-07-13T15:11:51;9.35;;;3.35;;
41167;SDS011;26906;45.658;9.272;2023-07-13T15:14:19;11.77;;;3.38;;
41167;SDS011;26906;45.658;9.272;2023-07-13T15:16:46;11.88;;;3.33;;
41167;SDS011;26906;45.658;9.272;2023-07-13T15:19:14;10.23;;;3.80;;
41167;SDS011;26906;45.658;9.272;2023-07-13T15:21:41;6.43;;;3.28;;
41167;SDS011;26906;45.658;9.272;2023-07-13T15:24:08;6.80;;;3.33;;
41167;SDS011;26906;45.658;9.272;2023-07-13T15:26:38;7.25;;;3.22;;
41167;SDS011;26906;45.658;9.272;2023-07-13T15:29:04;7.82;;;3.17;;
41167;SDS011;26906;45.658;9.272;2023-07-13T15:31:30;7.97;;;3.70;;
41167;SDS011;26906;45.658;9.272;2023-07-13T15:33:58;8.15;;;3.63;;
41167;SDS011;26906;45.658;9.272;2023-07-13T15:36:24;7.05;;;3.17;;
41167;SDS011;26906;45.658;9.272;2023-07-13T15:38:52;7.63;;;3.55;;
41167;SDS011;26906;45.658;9.272;2023-07-13T15:43:50;7.13;;;3.38;;
41167;SDS011;26906;45.658;9.272;2023-07-13T15:46:18;7.65;;;3.08;;
41167;SDS011;26906;45.658;9.272;2023-07-13T15:48:46;7.28;;;3.10;;
41167;SDS011;26906;45.658;9.272;2023-07-13T15:51:15;9.38;;;3.20;;
41167;SDS011;26906;45.658;9.272;2023-07-13T15:53:55;5.60;;;3.67;;
41167;SDS011;26906;45.658;9.272;2023-07-13T15:56:27;6.53;;;3.00;;
41167;SDS011;26906;45.658;9.272;2023-07-13T15:58:54;7.55;;;2.90;;
41167;SDS011;26906;45.658;9.272;2023-07-13T16:01:22;5.68;;;2.80;;
41167;SDS011;26906;45.658;9.272;2023-07-13T16:03:49;6.40;;;2.97;;
41167;SDS011;26906;45.658;9.272;2023-07-13T16:06:23;7.75;;;3.20;;
41167;SDS011;26906;45.658;9.272;2023-07-13T16:09:04;7.65;;;3.65;;
41167;SDS011;26906;45.658;9.272;2023-07-13T16:25:02;7.53;;;3.33;;
41167;SDS011;26906;45.658;9.272;2023-07-13T16:27:34;8.87;;;3.60;;
41167;SDS011;26906;45.658;9.272;2023-07-13T16:29:59;7.32;;;3.22;;
41167;SDS011;26906;45.658;9.272;2023-07-13T16:32:25;6.85;;;3.30;;
41167;SDS011;26906;45.658;9.272;2023-07-13T16:34:51;4.88;;;3.20;;
41167;SDS011;26906;45.658;9.272;2023-07-13T16:37:18;6.75;;;3.30;;
41167;SDS011;26906;45.658;9.272;2023-07-13T16:39:47;8.57;;;3.65;;
41167;SDS011;26906;45.658;9.272;2023-07-13T16:42:18;9.23;;;3.00;;
41167;SDS011;26906;45.658;9.272;2023-07-13T16:44:44;6.22;;;3.20;;
41167;SDS011;26906;45.658;9.272;2023-07-13T16:47:12;7.05;;;3.28;;
41167;SDS011;26906;45.658;9.272;2023-07-13T16:49:39;8.05;;;3.22;;
41167;SDS011;26906;45.658;9.272;2023-07-13T16:52:05;5.65;;;3.22;;
41167;SDS011;26906;45.658;9.272;2023-07-13T16:54:35;10.98;;;3.38;;
41167;SDS011;26906;45.658;9.272;2023-07-13T16:57:11;5.60;;;2.70;;
41167;SDS011;26906;45.658;9.272;2023-07-13T16:59:39;7.53;;;3.20;;
41167;SDS011;26906;45.658;9.272;2023-07-13T17:02:21;6.30;;;3.20;;
41167;SDS011;26906;45.658;9.272;2023-07-13T17:04:52;5.47;;;2.65;;
41167;SDS011;26906;45.658;9.272;2023-07-13T17:07:18;6.70;;;2.90;;
41167;SDS011;26906;45.658;9.272;2023-07-13T17:09:48;9.00;;;3.20;;
41167;SDS011;26906;45.658;9.272;2023-07-13T17:12:14;5.38;;;3.00;;
41167;SDS011;26906;45.658;9.272;2023-07-13T17:14:40;9.25;;;3.03;;
41167;SDS011;26906;45.658;9.272;2023-07-13T17:17:21;8.65;;;2.92;;
41167;SDS011;26906;45.658;9.272;2023-07-13T17:20:01;4.13;;;2.47;;
41167;SDS011;26906;45.658;9.272;2023-07-13T17:22:28;5.50;;;2.58;;
41167;SDS011;26906;45.658;9.272;2023-07-13T17:24:54;7.78;;;2.60;;
41167;SDS011;26906;45.658;9.272;2023-07-13T17:27:19;5.75;;;2.95;;
41167;SDS011;26906;45.658;9.272;2023-07-13T17:29:46;4.90;;;2.78;;
41167;SDS011;26906;45.658;9.272;2023-07-13T17:32:19;8.40;;;2.90;;
41167;SDS011;26906;45.658;9.272;2023-07-13T17:34:45;8.20;;;3.03;;
41167;SDS011;26906;45.658;9.272;2023-07-13T17:37:14;5.97;;;2.80;;
41167;SDS011;26906;45.658;9.272;2023-07-13T17:39:42;4.88;;;2.70;;
41167;SDS011;26906;45.658;9.272;2023-07-13T17:42:09;9.15;;;2.90;;
41167;SDS011;26906;45.658;9.272;2023-07-13T17:44:37;5.18;;;2.55;;
41167;SDS011;26906;45.658;9.272;2023-07-13T17:47:04;3.55;;;2.30;;
41167;SDS011;26906;45.658;9.272;2023-07-13T17:49:31;4.75;;;2.60;;
41167;SDS011;26906;45.658;9.272;2023-07-13T17:51:58;8.43;;;2.60;;
41167;SDS011;26906;45.658;9.272;2023-07-13T17:54:25;8.25;;;2.70;;
41167;SDS011;26906;45.658;9.272;2023-07-13T17:56:53;5.45;;;2.55;;
41167;SDS011;26906;45.658;9.272;2023-07-13T17:59:18;5.60;;;2.53;;
41167;SDS011;26906;45.658;9.272;2023-07-13T18:01:45;7.72;;;2.65;;
41167;SDS011;26906;45.658;9.272;2023-07-13T18:04:13;7.32;;;2.17;;
41167;SDS011;26906;45.658;9.272;2023-07-13T18:06:41;7.28;;;2.60;;
41167;SDS011;26906;45.658;9.272;2023-07-13T18:09:21;6.32;;;2.60;;
41167;SDS011;26906;45.658;9.272;2023-07-13T18:11:48;7.28;;;2.58;;
41167;SDS011;26906;45.658;9.272;2023-07-13T18:14:14;5.18;;;2.20;;
41167;SDS011;26906;45.658;9.272;2023-07-13T18:16:40;4.60;;;2.67;;
41167;SDS011;26906;45.658;9.272;2023-07-13T18:19:22;5.93;;;2.42;;
41167;SDS011;26906;45.658;9.272;2023-07-13T18:21:58;3.53;;;2.20;;
41167;SDS011;26906;45.658;9.272;2023-07-13T18:24:24;4.25;;;2.20;;
41167;SDS011;26906;45.658;9.272;2023-07-13T18:26:51;4.15;;;2.40;;
41167;SDS011;26906;45.658;9.272;2023-07-13T18:29:16;5.25;;;2.33;;
41167;SDS011;26906;45.658;9.272;2023-07-13T18:31:43;6.38;;;2.97;;
41167;SDS011;26906;45.658;9.272;2023-07-13T18:34:09;4.05;;;2.10;;
41167;SDS011;26906;45.658;9.272;2023-07-13T18:36:36;6.60;;;2.53;;
41167;SDS011;26906;45.658;9.272;2023-07-13T18:39:04;4.60;;;2.42;;
41167;SDS011;26906;45.658;9.272;2023-07-13T18:41:31;3.47;;;2.10;;
41167;SDS011;26906;45.658;9.272;2023-07-13T18:43:57;7.47;;;2.05;;
41167;SDS011;26906;45.658;9.272;2023-07-13T18:46:27;4.38;;;2.05;;
41167;SDS011;26906;45.658;9.272;2023-07-13T18:48:57;5.93;;;2.20;;
41167;SDS011;26906;45.658;9.272;2023-07-13T18:51:23;6.75;;;2.40;;
41167;SDS011;26906;45.658;9.272;2023-07-13T18:53:49;6.55;;;2.78;;
41167;SDS011;26906;45.658;9.272;2023-07-13T18:56:15;5.45;;;3.00;;
41167;SDS011;26906;45.658;9.272;2023-07-13T18:58:41;7.03;;;4.43;;
41167;SDS011;26906;45.658;9.272;2023-07-13T19:01:18;13.95;;;9.70;;
41167;SDS011;26906;45.658;9.272;2023-07-13T19:03:50;25.60;;;19.58;;
41167;SDS011;26906;45.658;9.272;2023-07-13T19:06:16;14.82;;;10.25;;
41167;SDS011;26906;45.658;9.272;2023-07-13T19:08:43;19.67;;;14.27;;
41167;SDS011;26906;45.658;9.272;2023-07-13T19:11:19;14.55;;;9.93;;
41167;SDS011;26906;45.658;9.272;2023-07-13T19:13:47;8.63;;;5.13;;
41167;SDS011;26906;45.658;9.272;2023-07-13T19:16:16;10.73;;;4.70;;
41167;SDS011;26906;45.658;9.272;2023-07-13T19:18:42;9.25;;;8.18;;
41167;SDS011;26906;45.658;9.272;2023-07-13T19:23:59;18.23;;;15.07;;
41167;SDS011;26906;45.658;9.272;2023-07-13T19:26:27;9.85;;;6.60;;
41167;SDS011;26906;45.658;9.272;2023-07-13T19:28:56;5.25;;;3.92;;
41167;SDS011;26906;45.658;9.272;2023-07-13T19:31:28;4.95;;;3.08;;
41167;SDS011;26906;45.658;9.272;2023-07-13T19:36:38;6.47;;;2.75;;
41167;SDS011;26906;45.658;9.272;2023-07-13T19:39:04;4.25;;;2.58;;
41167;SDS011;26906;45.658;9.272;2023-07-13T19:41:41;5.53;;;2.28;;
41167;SDS011;26906;45.658;9.272;2023-07-13T19:44:09;5.32;;;2.83;;
41167;SDS011;26906;45.658;9.272;2023-07-13T19:46:38;6.05;;;2.88;;
41167;SDS011;26906;45.658;9.272;2023-07-13T19:49:04;6.65;;;2.50;;
41167;SDS011;26906;45.658;9.272;2023-07-13T19:51:31;6.00;;;2.70;;
41167;SDS011;26906;45.658;9.272;2023-07-13T19:54:19;6.22;;;2.58;;
41167;SDS011;26906;45.658;9.272;2023-07-13T19:56:44;8.75;;;3.35;;
41167;SDS011;26906;45.658;9.272;2023-07-13T19:59:21;5.90;;;2.88;;
41167;SDS011;26906;45.658;9.272;2023-07-13T20:01:47;4.75;;;2.78;;
41167;SDS011;26906;45.658;9.272;2023-07-13T20:04:14;5.95;;;2.65;;
41167;SDS011;26906;45.658;9.272;2023-07-13T20:06:39;4.88;;;2.40;;
41167;SDS011;26906;45.658;9.272;2023-07-13T20:09:11;5.75;;;2.83;;
41167;SDS011;26906;45.658;9.272;2023-07-13T20:11:43;6.82;;;3.00;;
41167;SDS011;26906;45.658;9.272;2023-07-13T20:14:15;6.20;;;2.90;;
41167;SDS011;26906;45.658;9.272;2023-07-13T20:16:52;7.25;;;3.00;;
41167;SDS011;26906;45.658;9.272;2023-07-13T20:19:27;5.70;;;3.05;;
41167;SDS011;26906;45.658;9.272;2023-07-13T20:21:58;4.38;;;2.35;;
41167;SDS011;26906;45.658;9.272;2023-07-13T20:24:24;5.40;;;2.63;;
